createdAt,value
2022-10-11T00:00:08.726Z,12.90
2022-10-11T00:01:10.549Z,12.89
2022-10-11T00:02:12.047Z,12.91
2022-10-11T00:03:14.594Z,12.93
2022-10-11T00:04:16.164Z,12.94
2022-10-11T00:05:18.044Z,12.93
2022-10-11T00:06:19.551Z,12.94
2022-10-11T00:07:21.035Z,12.93
2022-10-11T00:08:22.967Z,12.94
2022-10-11T00:09:24.458Z,12.94
2022-10-11T00:10:26.024Z,12.93
2022-10-11T00:11:27.790Z,12.94
2022-10-11T00:12:29.224Z,12.95
2022-10-11T00:13:30.823Z,12.95
2022-10-11T00:14:33.971Z,12.93
2022-10-11T00:15:35.576Z,12.93
2022-10-11T00:16:41.214Z,12.92
2022-10-11T00:17:43.111Z,12.90
2022-10-11T00:18:44.540Z,12.90
2022-10-11T00:19:46.434Z,12.92
2022-10-11T00:20:47.966Z,12.95
2022-10-11T00:21:49.955Z,12.94
2022-10-11T00:22:51.371Z,12.94
2022-10-11T00:23:52.847Z,12.92
2022-10-11T00:24:54.316Z,12.93
2022-10-11T00:26:01.519Z,12.93
2022-10-11T00:27:03.631Z,12.92
2022-10-11T00:28:05.941Z,12.92
2022-10-11T00:29:07.524Z,12.93
2022-10-11T00:30:10.485Z,12.93
2022-10-11T00:31:13.842Z,12.92
2022-10-11T00:32:15.412Z,12.92
2022-10-11T00:33:16.891Z,12.92
2022-10-11T00:34:18.395Z,12.93
2022-10-11T00:35:19.818Z,12.94
2022-10-11T00:36:22.624Z,12.93
2022-10-11T00:37:24.089Z,12.93
2022-10-11T00:38:25.647Z,12.93
2022-10-11T00:39:27.168Z,12.95
2022-10-11T00:40:28.592Z,12.94
2022-10-11T00:41:30.422Z,12.93
2022-10-11T00:42:32.033Z,12.94
2022-10-11T00:43:33.796Z,12.94
2022-10-11T00:44:35.357Z,12.95
2022-10-11T00:45:36.721Z,12.95
2022-10-11T00:46:40.707Z,12.95
2022-10-11T00:47:42.153Z,12.93
2022-10-11T00:48:50.749Z,12.94
2022-10-11T00:49:59.256Z,12.94
2022-10-11T00:51:04.485Z,12.95
2022-10-11T00:52:15.308Z,12.95
2022-10-11T00:53:16.795Z,12.97
2022-10-11T00:54:23.867Z,12.95
2022-10-11T00:55:29.351Z,12.91
2022-10-11T00:56:35.667Z,12.88
2022-10-11T00:57:42.245Z,12.87
2022-10-11T00:58:44.155Z,12.88
2022-10-11T00:59:49.781Z,12.87
2022-10-11T01:00:51.410Z,12.86
2022-10-11T01:01:53.671Z,12.87
2022-10-11T01:02:55.255Z,12.84
2022-10-11T01:03:57.425Z,12.82
2022-10-11T01:05:25.192Z,12.82
2022-10-11T01:06:20.770Z,12.81
2022-10-11T01:07:22.803Z,12.82
2022-10-11T01:08:25.606Z,12.82
2022-10-11T01:09:27.396Z,12.79
2022-10-11T01:10:29.586Z,12.78
2022-10-11T01:11:31.644Z,12.76
2022-10-11T01:12:33.654Z,12.75
2022-10-11T01:13:59.290Z,12.75
2022-10-11T01:15:17.291Z,12.72
2022-10-11T01:16:42.277Z,12.75
2022-10-11T01:17:51.914Z,12.76
2022-10-11T01:19:15.302Z,12.77
2022-10-11T01:20:38.226Z,12.77
2022-10-11T01:21:50.553Z,12.75
2022-10-11T01:23:19.442Z,12.72
2022-10-11T01:25:13.204Z,12.70
2022-10-11T01:26:32.972Z,12.67
2022-10-11T01:27:57.325Z,12.67
2022-10-11T01:29:16.835Z,12.66
2022-10-11T01:30:18.396Z,12.65
2022-10-11T01:31:36.190Z,12.65
2022-10-11T01:32:46.716Z,12.63
2022-10-11T01:34:04.130Z,12.67
2022-10-11T01:35:20.454Z,12.67
2022-10-11T01:36:28.038Z,12.66
2022-10-11T01:37:29.463Z,12.65
2022-10-11T01:38:56.550Z,12.65
2022-10-11T01:40:05.861Z,12.63
2022-10-11T01:41:16.749Z,12.63
2022-10-11T01:42:20.074Z,12.64
2022-10-11T01:43:24.282Z,12.62
2022-10-11T01:44:27.050Z,12.62
2022-10-11T01:45:29.558Z,12.64
2022-10-11T01:46:32.390Z,12.62
2022-10-11T01:47:33.830Z,12.63
2022-10-11T01:48:51.389Z,12.66
2022-10-11T01:49:58.581Z,12.65
2022-10-11T01:51:03.343Z,12.63
2022-10-11T01:52:06.725Z,12.63
2022-10-11T01:53:45.440Z,12.62
2022-10-11T01:55:16.955Z,12.62
2022-10-11T01:56:56.488Z,12.61
2022-10-11T01:58:06.870Z,12.61
2022-10-11T01:59:23.569Z,12.60
2022-10-11T02:00:31.821Z,12.61
2022-10-11T02:01:58.383Z,12.62
2022-10-11T02:03:06.827Z,12.64
2022-10-11T02:04:32.883Z,12.64
2022-10-11T02:05:51.737Z,12.62
2022-10-11T02:07:31.095Z,12.61
2022-10-11T02:09:08.231Z,12.62
2022-10-11T02:10:09.820Z,12.63
2022-10-11T02:11:38.663Z,12.66
2022-10-11T02:12:44.687Z,12.67
2022-10-11T02:14:11.097Z,12.67
2022-10-11T02:15:14.732Z,12.66
2022-10-11T02:16:19.900Z,12.65
2022-10-11T02:17:24.552Z,12.66
2022-10-11T02:18:32.196Z,12.68
2022-10-11T02:19:41.417Z,12.69
2022-10-11T02:20:45.344Z,12.68
2022-10-11T02:21:53.157Z,12.69
2022-10-11T02:23:03.421Z,12.72
2022-10-11T02:24:22.204Z,12.75
2022-10-11T02:25:26.918Z,12.77
2022-10-11T02:26:31.467Z,12.77
2022-10-11T02:27:36.622Z,12.78
2022-10-11T02:28:42.291Z,12.81
2022-10-11T02:29:46.004Z,12.81
2022-10-11T02:30:50.811Z,12.80
2022-10-11T02:31:54.224Z,12.79
2022-10-11T02:32:58.741Z,12.80
2022-10-11T02:34:05.336Z,12.79
2022-10-11T02:35:08.144Z,12.80
2022-10-11T02:36:19.725Z,12.79
2022-10-11T02:37:42.566Z,12.80
2022-10-11T02:38:49.883Z,12.79
2022-10-11T02:40:01.263Z,12.78
2022-10-11T02:41:25.596Z,12.76
2022-10-11T02:42:37.169Z,12.76
2022-10-11T02:43:45.674Z,12.77
2022-10-11T02:44:59.713Z,12.78
2022-10-11T02:46:02.461Z,12.79
2022-10-11T02:47:05.512Z,12.76
2022-10-11T02:48:08.129Z,12.78
2022-10-11T02:49:10.436Z,12.81
2022-10-11T02:50:12.551Z,12.82
2022-10-11T02:51:14.824Z,12.82
2022-10-11T02:52:16.596Z,12.82
2022-10-11T02:53:18.095Z,12.81
2022-10-11T02:54:19.577Z,12.81
2022-10-11T02:55:21.308Z,12.81
2022-10-11T02:56:22.770Z,12.82
2022-10-11T02:57:24.592Z,12.81
2022-10-11T02:58:26.266Z,12.80
2022-10-11T02:59:27.932Z,12.78
2022-10-11T03:00:29.613Z,12.72
2022-10-11T03:01:31.128Z,12.71
2022-10-11T03:02:33.010Z,12.69
2022-10-11T03:03:34.484Z,12.69
2022-10-11T03:04:36.735Z,12.70
2022-10-11T03:05:41.740Z,12.70
2022-10-11T03:06:43.689Z,12.69
2022-10-11T03:07:45.487Z,12.69
2022-10-11T03:08:46.972Z,12.69
2022-10-11T03:09:48.441Z,12.68
2022-10-11T03:10:49.956Z,12.69
2022-10-11T03:11:51.431Z,12.70
2022-10-11T03:12:52.906Z,12.70
2022-10-11T03:13:54.380Z,12.68
2022-10-11T03:14:55.870Z,12.67
2022-10-11T03:16:07.268Z,12.67
2022-10-11T03:17:34.437Z,12.66
2022-10-11T03:18:31.488Z,12.66
2022-10-11T03:19:33.686Z,12.65
2022-10-11T03:20:35.407Z,12.65
2022-10-11T03:21:36.952Z,12.68
2022-10-11T03:22:38.821Z,12.68
2022-10-11T03:23:40.470Z,12.68
2022-10-11T03:24:41.911Z,12.67
2022-10-11T03:25:45.911Z,12.67
2022-10-11T03:26:47.425Z,12.68
2022-10-11T03:27:48.940Z,12.67
2022-10-11T03:28:50.445Z,12.68
2022-10-11T03:29:51.930Z,12.68
2022-10-11T03:30:53.501Z,12.68
2022-10-11T03:31:55.221Z,12.69
2022-10-11T03:32:57.195Z,12.69
2022-10-11T03:33:58.632Z,12.71
2022-10-11T03:35:00.184Z,12.70
2022-10-11T03:36:01.721Z,12.70
2022-10-11T03:37:03.398Z,12.70
2022-10-11T03:38:05.182Z,12.72
2022-10-11T03:39:06.681Z,12.72
2022-10-11T03:40:08.908Z,12.74
2022-10-11T03:41:10.356Z,12.72
2022-10-11T03:42:12.943Z,12.73
2022-10-11T03:43:14.813Z,12.74
2022-10-11T03:44:16.336Z,12.75
2022-10-11T03:45:17.881Z,12.76
2022-10-11T03:46:19.319Z,12.76
2022-10-11T03:47:21.147Z,12.78
2022-10-11T03:48:22.609Z,12.79
2022-10-11T03:49:24.756Z,12.83
2022-10-11T03:50:26.273Z,12.84
2022-10-11T03:51:27.810Z,12.85
2022-10-11T03:52:29.686Z,12.86
2022-10-11T03:53:31.116Z,12.87
2022-10-11T03:54:32.833Z,12.89
2022-10-11T03:55:34.581Z,12.90
2022-10-11T03:56:36.122Z,12.91
2022-10-11T03:57:38.000Z,12.90
2022-10-11T03:58:40.763Z,12.92
2022-10-11T03:59:42.360Z,12.92
2022-10-11T04:00:43.851Z,12.92
2022-10-11T04:01:45.388Z,12.93
2022-10-11T04:02:47.296Z,12.95
2022-10-11T04:03:48.825Z,12.94
2022-10-11T04:04:50.295Z,12.93
2022-10-11T04:05:51.818Z,12.96
2022-10-11T04:06:53.928Z,12.97
2022-10-11T04:07:55.412Z,12.96
2022-10-11T04:08:57.014Z,12.95
2022-10-11T04:09:59.080Z,12.96
2022-10-11T04:11:00.835Z,12.96
2022-10-11T04:12:02.792Z,12.95
2022-10-11T04:13:04.377Z,12.96
2022-10-11T04:14:05.916Z,12.96
2022-10-11T04:15:08.006Z,12.98
2022-10-11T04:16:09.452Z,12.97
2022-10-11T04:17:11.338Z,12.97
2022-10-11T04:18:12.952Z,12.96
2022-10-11T04:19:14.500Z,12.97
2022-10-11T04:20:16.192Z,12.96
2022-10-11T04:21:17.988Z,12.96
2022-10-11T04:22:19.822Z,12.95
2022-10-11T04:23:21.276Z,12.93
2022-10-11T04:24:22.967Z,12.94
2022-10-11T04:25:24.654Z,12.94
2022-10-11T04:26:26.451Z,12.95
2022-10-11T04:27:29.289Z,12.96
2022-10-11T04:28:30.875Z,12.98
2022-10-11T04:29:32.990Z,13.00
2022-10-11T04:30:34.738Z,13.00
2022-10-11T04:31:36.521Z,13.01
2022-10-11T04:32:37.972Z,13.02
2022-10-11T04:33:39.448Z,13.01
2022-10-11T04:34:41.056Z,13.00
2022-10-11T04:35:42.753Z,13.00
2022-10-11T04:36:49.600Z,13.00
2022-10-11T04:37:51.472Z,12.99
2022-10-11T04:38:56.076Z,12.99
2022-10-11T04:39:57.584Z,12.99
2022-10-11T04:41:14.010Z,12.99
2022-10-11T04:42:16.351Z,12.99
2022-10-11T04:43:19.085Z,12.98
2022-10-11T04:44:20.575Z,12.98
2022-10-11T04:45:22.282Z,12.98
2022-10-11T04:46:24.310Z,12.98
2022-10-11T04:47:26.026Z,12.95
2022-10-11T04:48:27.570Z,12.94
2022-10-11T04:49:29.012Z,12.94
2022-10-11T04:50:30.477Z,12.94
2022-10-11T04:51:33.818Z,12.95
2022-10-11T04:52:35.271Z,12.95
2022-10-11T04:53:36.787Z,12.96
2022-10-11T04:54:38.292Z,12.95
2022-10-11T04:55:39.816Z,12.96
2022-10-11T04:56:41.726Z,12.98
2022-10-11T04:57:43.296Z,13.00
2022-10-11T04:58:48.138Z,13.00
2022-10-11T04:59:50.392Z,12.99
2022-10-11T05:00:51.975Z,13.01
2022-10-11T05:01:53.828Z,13.00
2022-10-11T05:02:55.322Z,12.99
2022-10-11T05:03:56.875Z,13.00
2022-10-11T05:04:58.750Z,12.99
2022-10-11T05:06:05.474Z,12.96
2022-10-11T05:07:07.435Z,12.95
2022-10-11T05:08:08.869Z,12.95
2022-10-11T05:09:10.401Z,12.95
2022-10-11T05:10:11.899Z,12.96
2022-10-11T05:11:16.384Z,12.98
2022-10-11T05:12:17.826Z,12.97
2022-10-11T05:13:19.330Z,12.97
2022-10-11T05:14:20.933Z,12.97
2022-10-11T05:15:22.385Z,12.97
2022-10-11T05:16:24.685Z,12.97
2022-10-11T05:17:26.185Z,12.97
2022-10-11T05:18:28.130Z,12.97
2022-10-11T05:19:29.647Z,12.97
2022-10-11T05:20:31.093Z,12.99
2022-10-11T05:21:32.617Z,12.99
2022-10-11T05:22:34.225Z,12.98
2022-10-11T05:23:37.210Z,12.96
2022-10-11T05:24:38.716Z,12.96
2022-10-11T05:25:40.260Z,12.96
2022-10-11T05:26:41.727Z,12.96
2022-10-11T05:27:43.166Z,12.98
2022-10-11T05:28:44.955Z,12.97
2022-10-11T05:29:46.493Z,12.97
2022-10-11T05:30:47.950Z,12.98
2022-10-11T05:31:49.489Z,12.98
2022-10-11T05:32:50.936Z,12.99
2022-10-11T05:33:52.547Z,12.96
2022-10-11T05:34:53.985Z,12.97
2022-10-11T05:35:55.460Z,12.97
2022-10-11T05:36:57.330Z,12.97
2022-10-11T05:37:58.759Z,12.94
2022-10-11T05:39:00.239Z,12.94
2022-10-11T05:40:01.654Z,12.93
2022-10-11T05:41:04.554Z,12.93
2022-10-11T05:42:09.787Z,12.92
2022-10-11T05:43:11.528Z,12.88
2022-10-11T05:44:12.968Z,12.87
2022-10-11T05:45:14.438Z,12.86
2022-10-11T05:46:17.082Z,12.85
2022-10-11T05:47:18.517Z,12.86
2022-10-11T05:48:20.332Z,12.89
2022-10-11T05:49:21.841Z,12.89
2022-10-11T05:50:24.479Z,12.90
2022-10-11T05:51:26.497Z,12.92
2022-10-11T05:52:28.329Z,12.93
2022-10-11T05:53:30.318Z,12.94
2022-10-11T05:54:32.275Z,12.95
2022-10-11T05:55:38.169Z,12.97
2022-10-11T05:56:39.661Z,12.96
2022-10-11T05:57:41.204Z,12.97
2022-10-11T05:58:42.619Z,12.98
2022-10-11T05:59:44.028Z,12.99
2022-10-11T06:00:45.806Z,13.00
2022-10-11T06:01:47.292Z,13.01
2022-10-11T06:02:48.783Z,13.02
2022-10-11T06:03:50.953Z,13.03
2022-10-11T06:04:52.425Z,13.04
2022-10-11T06:05:57.013Z,13.04
2022-10-11T06:06:58.838Z,13.04
2022-10-11T06:08:00.255Z,13.05
2022-10-11T06:10:04.112Z,13.06
2022-10-11T06:11:13.689Z,13.07
2022-10-11T06:12:15.242Z,13.09
2022-10-11T06:13:16.689Z,13.11
2022-10-11T06:14:18.377Z,13.11
2022-10-11T06:15:19.867Z,13.11
2022-10-11T06:16:21.850Z,13.12
2022-10-11T06:17:24.006Z,13.11
2022-10-11T06:18:25.407Z,13.10
2022-10-11T06:19:26.802Z,13.13
2022-10-11T06:20:28.312Z,13.13
2022-10-11T06:21:48.751Z,13.15
2022-10-11T06:22:50.418Z,13.15
2022-10-11T06:23:56.843Z,13.15
2022-10-11T06:25:01.575Z,13.17
2022-10-11T06:26:07.942Z,13.18
2022-10-11T06:27:10.029Z,13.18
2022-10-11T06:28:11.458Z,13.19
2022-10-11T06:29:12.888Z,13.20
2022-10-11T06:30:14.713Z,13.21
2022-10-11T06:31:16.535Z,13.23
2022-10-11T06:32:18.472Z,13.24
2022-10-11T06:33:19.964Z,13.25
2022-10-11T06:34:21.517Z,13.26
2022-10-11T06:35:22.922Z,13.26
2022-10-11T06:36:24.677Z,13.28
2022-10-11T06:37:26.152Z,13.26
2022-10-11T06:38:27.646Z,13.27
2022-10-11T06:39:29.104Z,13.29
2022-10-11T06:40:30.862Z,13.29
2022-10-11T06:41:32.300Z,13.32
2022-10-11T06:42:33.774Z,13.31
2022-10-11T06:43:35.179Z,13.31
2022-10-11T06:44:36.639Z,13.31
2022-10-11T06:45:38.391Z,13.31
2022-10-11T06:46:39.926Z,13.32
2022-10-11T06:47:41.351Z,13.33
2022-10-11T06:48:43.982Z,13.34
2022-10-11T06:49:45.454Z,13.36
2022-10-11T06:50:59.568Z,13.37
2022-10-11T06:52:01.968Z,13.36
2022-10-11T06:53:03.471Z,13.36
2022-10-11T06:54:05.296Z,13.38
2022-10-11T06:55:07.652Z,13.40
2022-10-11T06:56:11.631Z,13.41
2022-10-11T06:57:13.107Z,13.43
2022-10-11T06:58:14.548Z,13.43
2022-10-11T06:59:16.015Z,13.43
2022-10-11T07:00:18.089Z,13.46
2022-10-11T07:01:21.575Z,13.48
2022-10-11T07:02:23.083Z,13.48
2022-10-11T07:03:24.719Z,13.49
2022-10-11T07:04:27.622Z,13.50
2022-10-11T07:05:31.982Z,13.49
2022-10-11T07:06:37.816Z,13.50
2022-10-11T07:07:39.255Z,13.50
2022-10-11T07:08:40.810Z,13.51
2022-10-11T07:09:42.202Z,13.54
2022-10-11T07:10:43.982Z,13.53
2022-10-11T07:11:46.316Z,13.56
2022-10-11T07:12:47.714Z,13.56
2022-10-11T07:13:54.637Z,13.56
2022-10-11T07:14:56.505Z,13.56
2022-10-11T07:16:00.933Z,13.57
2022-10-11T07:17:02.672Z,13.55
2022-10-11T07:18:04.313Z,13.58
2022-10-11T07:19:07.662Z,13.57
2022-10-11T07:20:10.054Z,13.55
2022-10-11T07:21:13.603Z,13.56
2022-10-11T07:22:15.048Z,13.57
2022-10-11T07:23:16.711Z,13.58
2022-10-11T07:24:18.524Z,13.61
2022-10-11T07:25:20.283Z,13.60
2022-10-11T07:26:21.712Z,13.61
2022-10-11T07:27:23.556Z,13.62
2022-10-11T07:28:25.485Z,13.60
2022-10-11T07:29:27.024Z,13.62
2022-10-11T07:30:28.821Z,13.63
2022-10-11T07:31:30.314Z,13.63
2022-10-11T07:32:31.783Z,13.62
2022-10-11T07:33:33.460Z,13.65
2022-10-11T07:34:35.248Z,13.65
2022-10-11T07:35:37.405Z,13.66
2022-10-11T07:36:39.002Z,13.65
2022-10-11T07:37:40.454Z,13.67
2022-10-11T07:38:44.715Z,13.68
2022-10-11T07:39:46.556Z,13.70
2022-10-11T07:40:48.089Z,13.72
2022-10-11T07:41:49.529Z,13.73
2022-10-11T07:42:51.303Z,13.74
2022-10-11T07:43:54.488Z,13.75
2022-10-11T07:44:56.274Z,13.76
2022-10-11T07:46:00.586Z,13.77
2022-10-11T07:47:02.083Z,13.79
2022-10-11T07:48:03.617Z,13.81
2022-10-11T07:49:05.073Z,13.83
2022-10-11T07:50:07.593Z,13.86
2022-10-11T07:51:13.870Z,13.87
2022-10-11T07:52:15.336Z,13.84
2022-10-11T07:53:16.796Z,13.87
2022-10-11T07:54:18.592Z,13.89
2022-10-11T07:55:20.014Z,13.90
2022-10-11T07:56:24.234Z,13.91
2022-10-11T07:57:25.753Z,13.93
2022-10-11T07:58:27.242Z,13.95
2022-10-11T07:59:29.046Z,13.97
2022-10-11T08:00:30.579Z,13.98
2022-10-11T08:01:32.751Z,13.99
2022-10-11T08:02:34.280Z,14.00
2022-10-11T08:03:36.687Z,14.01
2022-10-11T08:04:38.550Z,14.04
2022-10-11T08:05:39.991Z,14.04
2022-10-11T08:06:42.331Z,14.04
2022-10-11T08:07:43.798Z,14.05
2022-10-11T08:08:45.327Z,14.06
2022-10-11T08:09:47.095Z,14.06
2022-10-11T08:10:48.517Z,14.09
2022-10-11T08:11:49.937Z,14.10
2022-10-11T08:12:51.592Z,14.13
2022-10-11T08:13:53.171Z,14.14
2022-10-11T08:14:55.758Z,14.18
2022-10-11T08:15:57.765Z,14.20
2022-10-11T08:16:59.211Z,14.24
2022-10-11T08:18:00.660Z,14.27
2022-10-11T08:19:03.503Z,14.30
2022-10-11T08:20:05.454Z,14.32
2022-10-11T08:21:12.517Z,14.37
2022-10-11T08:22:14.023Z,14.41
2022-10-11T08:23:19.388Z,14.46
2022-10-11T08:24:21.296Z,14.50
2022-10-11T08:25:22.749Z,14.50
2022-10-11T08:26:24.554Z,14.53
2022-10-11T08:27:26.031Z,14.59
2022-10-11T08:28:27.502Z,14.64
2022-10-11T08:29:29.246Z,14.68
2022-10-11T08:30:30.709Z,14.74
2022-10-11T08:31:33.036Z,14.79
2022-10-11T08:32:34.529Z,14.87
2022-10-11T08:33:36.555Z,14.94
2022-10-11T08:34:38.579Z,14.99
2022-10-11T08:35:39.988Z,15.06
2022-10-11T08:36:41.479Z,15.13
2022-10-11T08:37:42.964Z,15.18
2022-10-11T08:38:44.850Z,15.17
2022-10-11T08:39:46.324Z,15.18
2022-10-11T08:40:50.744Z,15.23
2022-10-11T08:42:01.235Z,15.21
2022-10-11T08:43:18.575Z,15.08
2022-10-11T08:45:09.937Z,15.10
2022-10-11T08:46:09.197Z,15.16
2022-10-11T08:47:21.469Z,15.23
2022-10-11T08:48:34.583Z,15.27
2022-10-11T08:49:36.771Z,15.20
2022-10-11T08:50:38.726Z,15.27
2022-10-11T08:51:45.580Z,15.34
2022-10-11T08:52:53.615Z,15.31
2022-10-11T08:54:07.966Z,15.23
2022-10-11T08:55:25.279Z,15.27
2022-10-11T08:56:28.055Z,15.34
2022-10-11T08:57:33.787Z,15.38
2022-10-11T08:59:03.405Z,15.41
2022-10-11T09:00:08.872Z,15.43
2022-10-11T09:01:20.644Z,15.40
2022-10-11T09:03:03.047Z,15.42
2022-10-11T09:04:03.979Z,15.49
2022-10-11T09:05:06.514Z,15.53
2022-10-11T09:06:23.229Z,15.56
2022-10-11T09:08:06.307Z,15.54
2022-10-11T09:09:08.064Z,15.56
2022-10-11T09:10:31.103Z,15.52
2022-10-11T09:11:54.124Z,15.51
2022-10-11T09:13:18.892Z,15.47
2022-10-11T09:14:23.681Z,15.55
2022-10-11T09:15:29.000Z,15.58
2022-10-11T09:16:42.656Z,15.58
2022-10-11T09:17:50.885Z,15.61
2022-10-11T09:19:29.048Z,15.64
2022-10-11T09:20:56.467Z,15.60
2022-10-11T09:22:00.814Z,15.47
2022-10-11T09:23:33.483Z,15.52
2022-10-11T09:24:37.546Z,15.52
2022-10-11T09:26:15.035Z,15.57
2022-10-11T09:27:43.450Z,15.61
2022-10-11T09:29:17.882Z,15.66
2022-10-11T09:30:20.609Z,15.67
2022-10-11T09:31:22.829Z,15.65
2022-10-11T09:32:28.546Z,15.66
2022-10-11T09:33:51.483Z,15.68
2022-10-11T09:35:09.753Z,15.71
2022-10-11T09:36:28.533Z,15.70
2022-10-11T09:37:35.500Z,15.70
2022-10-11T09:38:52.405Z,15.69
2022-10-11T09:40:03.218Z,15.71
2022-10-11T09:41:23.383Z,15.67
2022-10-11T09:42:24.861Z,15.64
2022-10-11T09:43:26.368Z,15.66
2022-10-11T09:44:35.327Z,15.71
2022-10-11T09:45:36.876Z,15.71
2022-10-11T09:46:42.243Z,15.73
2022-10-11T09:47:43.678Z,15.75
2022-10-11T09:48:45.419Z,15.75
2022-10-11T09:50:01.052Z,15.63
2022-10-11T09:51:06.469Z,15.63
2022-10-11T09:52:19.675Z,15.56
2022-10-11T09:53:52.879Z,15.62
2022-10-11T09:54:58.256Z,15.62
2022-10-11T09:56:05.221Z,15.68
2022-10-11T09:57:19.610Z,15.73
2022-10-11T09:58:31.099Z,15.64
2022-10-11T09:59:35.175Z,15.58
2022-10-11T10:00:36.710Z,15.66
2022-10-11T10:01:38.227Z,15.60
2022-10-11T10:02:54.402Z,15.58
2022-10-11T10:04:17.380Z,15.66
2022-10-11T10:05:20.260Z,15.65
2022-10-11T10:06:25.390Z,15.69
2022-10-11T10:07:28.573Z,15.76
2022-10-11T10:08:29.978Z,15.77
2022-10-11T10:09:31.853Z,15.72
2022-10-11T10:10:40.737Z,15.79
2022-10-11T10:11:42.125Z,15.82
2022-10-11T10:12:43.662Z,15.67
2022-10-11T10:13:51.585Z,15.65
2022-10-11T10:15:14.581Z,15.78
2022-10-11T10:16:37.175Z,15.87
2022-10-11T10:17:38.682Z,15.88
2022-10-11T10:18:48.846Z,15.98
2022-10-11T10:19:55.386Z,16.07
2022-10-11T10:21:01.877Z,16.07
2022-10-11T10:22:03.323Z,15.99
2022-10-11T10:23:26.914Z,16.02
2022-10-11T10:24:41.190Z,16.18
2022-10-11T10:25:51.021Z,16.18
2022-10-11T10:27:22.710Z,16.23
2022-10-11T10:28:27.146Z,16.41
2022-10-11T10:29:28.653Z,16.52
2022-10-11T10:30:35.332Z,16.47
2022-10-11T10:33:11.626Z,16.16
2022-10-11T10:34:16.743Z,16.30
2022-10-11T10:35:32.431Z,16.28
2022-10-11T10:36:36.654Z,16.30
2022-10-11T10:37:48.064Z,16.33
2022-10-11T10:38:56.193Z,16.41
2022-10-11T10:40:18.646Z,16.51
2022-10-11T10:41:20.156Z,16.54
2022-10-11T10:42:21.872Z,16.42
2022-10-11T10:43:26.722Z,16.30
2022-10-11T10:44:28.554Z,16.34
2022-10-11T10:45:44.192Z,16.37
2022-10-11T10:47:06.981Z,16.34
2022-10-11T10:48:22.207Z,16.15
2022-10-11T10:49:53.130Z,16.22
2022-10-11T10:51:00.938Z,16.27
2022-10-11T10:52:13.052Z,16.24
2022-10-11T10:53:24.708Z,16.24
2022-10-11T10:54:38.782Z,16.22
2022-10-11T10:55:45.960Z,16.22
2022-10-11T10:57:00.756Z,16.21
2022-10-11T10:58:30.083Z,16.12
2022-10-11T10:59:54.170Z,16.09
2022-10-11T11:01:04.063Z,16.10
2022-10-11T11:02:35.486Z,16.12
2022-10-11T11:04:08.665Z,16.10
2022-10-11T11:05:18.797Z,16.12
2022-10-11T11:06:42.663Z,16.13
2022-10-11T11:07:50.087Z,16.13
2022-10-11T11:08:56.631Z,16.13
2022-10-11T11:10:07.073Z,16.15
2022-10-11T11:11:31.733Z,16.13
2022-10-11T11:13:14.599Z,16.16
2022-10-11T11:14:34.312Z,16.08
2022-10-11T11:16:01.626Z,16.10
2022-10-11T11:17:15.665Z,16.18
2022-10-11T11:18:34.153Z,16.21
2022-10-11T11:19:41.241Z,16.24
2022-10-11T11:21:22.361Z,16.37
2022-10-11T11:22:57.669Z,16.44
2022-10-11T11:24:27.193Z,16.52
2022-10-11T11:25:34.712Z,16.64
2022-10-11T11:26:48.214Z,16.74
2022-10-11T11:28:20.546Z,16.82
2022-10-11T11:29:34.324Z,16.95
2022-10-11T11:30:41.120Z,16.91
2022-10-11T11:31:57.615Z,16.95
2022-10-11T11:33:22.234Z,17.06
2022-10-11T11:34:28.911Z,16.92
2022-10-11T11:35:43.941Z,16.92
2022-10-11T11:36:56.582Z,16.98
2022-10-11T11:38:06.499Z,17.03
2022-10-11T11:39:33.432Z,17.08
2022-10-11T11:40:39.342Z,16.98
2022-10-11T11:41:46.896Z,16.89
2022-10-11T11:42:51.343Z,16.72
2022-10-11T11:44:28.508Z,16.64
2022-10-11T11:45:40.581Z,16.64
2022-10-11T11:46:57.870Z,16.67
2022-10-11T11:48:09.927Z,16.63
2022-10-11T11:49:21.856Z,16.66
2022-10-11T11:50:25.058Z,16.72
2022-10-11T11:51:35.266Z,16.77
2022-10-11T11:52:41.081Z,16.79
2022-10-11T11:54:02.800Z,16.73
2022-10-11T11:55:44.643Z,16.67
2022-10-11T11:57:07.288Z,16.63
2022-10-11T11:58:23.646Z,16.68
2022-10-11T11:59:58.242Z,16.72
2022-10-11T12:01:17.861Z,16.69
2022-10-11T12:02:31.459Z,16.66
2022-10-11T12:03:46.970Z,16.63
2022-10-11T12:04:50.591Z,16.66
2022-10-11T12:06:14.526Z,16.67
2022-10-11T12:07:19.552Z,16.69
2022-10-11T12:08:32.141Z,16.70
2022-10-11T12:09:36.031Z,16.69
2022-10-11T12:10:49.633Z,16.65
2022-10-11T12:11:56.777Z,16.57
2022-10-11T12:13:02.694Z,16.63
2022-10-11T12:14:27.725Z,16.52
2022-10-11T12:15:29.361Z,16.55
2022-10-11T12:16:31.109Z,16.56
2022-10-11T12:17:33.398Z,16.59
2022-10-11T12:18:41.905Z,16.64
2022-10-11T12:20:24.927Z,16.74
2022-10-11T12:21:38.685Z,16.65
2022-10-11T12:23:00.666Z,16.67
2022-10-11T12:24:21.477Z,16.75
2022-10-11T12:25:22.840Z,16.79
2022-10-11T12:26:27.154Z,16.82
2022-10-11T12:27:40.475Z,16.83
2022-10-11T12:28:42.342Z,16.80
2022-10-11T12:29:51.529Z,16.74
2022-10-11T12:31:03.172Z,16.67
2022-10-11T12:32:04.756Z,16.65
2022-10-11T12:33:14.705Z,16.80
2022-10-11T12:34:21.551Z,16.97
2022-10-11T12:35:32.311Z,17.17
2022-10-11T12:36:50.501Z,17.25
2022-10-11T12:37:52.408Z,17.37
2022-10-11T12:39:18.646Z,17.48
2022-10-11T12:40:54.816Z,17.62
2022-10-11T12:42:21.269Z,17.82
2022-10-11T12:43:26.935Z,17.64
2022-10-11T12:44:29.501Z,17.65
2022-10-11T12:45:33.088Z,17.58
2022-10-11T12:46:42.271Z,17.71
2022-10-11T12:47:59.840Z,17.58
2022-10-11T12:49:24.644Z,17.77
2022-10-11T12:50:39.280Z,17.87
2022-10-11T12:51:59.883Z,18.03
2022-10-11T12:53:04.198Z,17.85
2022-10-11T12:54:36.140Z,17.84
2022-10-11T12:55:48.066Z,17.91
2022-10-11T12:56:56.925Z,17.74
2022-10-11T12:58:26.990Z,17.65
2022-10-11T12:59:32.301Z,17.73
2022-10-11T13:01:03.849Z,17.88
2022-10-11T13:02:28.691Z,17.90
2022-10-11T13:03:41.430Z,17.77
2022-10-11T13:04:42.917Z,17.79
2022-10-11T13:05:49.716Z,17.80
2022-10-11T13:07:01.079Z,17.79
2022-10-11T13:08:12.772Z,17.86
2022-10-11T13:09:24.869Z,17.97
2022-10-11T13:10:32.700Z,18.11
2022-10-11T13:11:43.740Z,18.13
2022-10-11T13:12:47.817Z,18.33
2022-10-11T13:14:26.720Z,18.60
2022-10-11T13:15:28.773Z,18.82
2022-10-11T13:16:47.942Z,18.87
2022-10-11T13:17:51.783Z,19.00
2022-10-11T13:19:00.438Z,18.96
2022-10-11T13:20:05.919Z,19.17
2022-10-11T13:21:27.598Z,19.29
2022-10-11T13:22:29.158Z,19.34
2022-10-11T13:23:38.366Z,19.33
2022-10-11T13:24:40.754Z,19.06
2022-10-11T13:25:42.334Z,19.10
2022-10-11T13:26:46.684Z,19.06
2022-10-11T13:27:50.170Z,19.01
2022-10-11T13:28:51.828Z,18.96
2022-10-11T13:29:59.630Z,18.94
2022-10-11T13:31:01.506Z,18.87
2022-10-11T13:32:07.825Z,18.73
2022-10-11T13:33:20.121Z,18.68
2022-10-11T13:34:23.639Z,18.59
2022-10-11T13:35:37.268Z,18.58
2022-10-11T13:36:39.400Z,18.54
2022-10-11T13:37:48.512Z,18.53
2022-10-11T13:38:58.170Z,18.46
2022-10-11T13:39:59.694Z,18.39
2022-10-11T13:41:04.436Z,18.19
2022-10-11T13:42:10.837Z,18.21
2022-10-11T13:43:15.608Z,18.25
2022-10-11T13:44:17.606Z,18.28
2022-10-11T13:45:23.266Z,18.31
2022-10-11T13:46:26.888Z,18.29
2022-10-11T13:47:30.281Z,18.25
2022-10-11T13:48:32.400Z,18.23
2022-10-11T13:49:40.192Z,18.22
2022-10-11T13:50:46.119Z,18.21
2022-10-11T13:51:57.983Z,18.08
2022-10-11T13:53:21.156Z,18.08
2022-10-11T13:54:22.952Z,18.21
2022-10-11T13:55:24.442Z,18.40
2022-10-11T13:56:28.297Z,18.72
2022-10-11T13:57:33.414Z,19.03
2022-10-11T13:58:40.691Z,19.30
2022-10-11T13:59:43.735Z,19.53
2022-10-11T14:01:05.925Z,19.72
2022-10-11T14:02:18.733Z,19.92
2022-10-11T14:03:22.099Z,20.03
2022-10-11T14:04:29.357Z,19.92
2022-10-11T14:05:36.662Z,19.87
2022-10-11T14:06:40.951Z,19.97
2022-10-11T14:07:42.490Z,20.03
2022-10-11T14:08:59.567Z,20.09
2022-10-11T14:10:01.084Z,20.12
2022-10-11T14:11:06.366Z,20.18
2022-10-11T14:12:29.991Z,20.16
2022-10-11T14:13:42.374Z,20.11
2022-10-11T14:14:44.033Z,19.84
2022-10-11T14:15:45.517Z,19.71
2022-10-11T14:16:58.631Z,19.64
2022-10-11T14:18:01.935Z,19.62
2022-10-11T14:19:10.891Z,19.69
2022-10-11T14:20:22.571Z,19.60
2022-10-11T14:21:28.764Z,19.54
2022-10-11T14:22:30.514Z,19.45
2022-10-11T14:23:32.286Z,19.35
2022-10-11T14:24:33.746Z,19.25
2022-10-11T14:25:35.695Z,19.17
2022-10-11T14:26:41.402Z,19.07